Nepheli — 3FNC5 — position and weather

sailwx.info

Track history (hours):
 
Tides and Currents Weather Stations Pressure Air Temp Water Temp Dewpoint Dewpoint Depression Visibility Wind Speed Wind Dir Waves Ship Positions

Nepheli

Last reported at 2016-Sep-24 19:30 UTC. Time now 2016-Sep-24 20:57 UTC.
Position N 38°01' E 023°33'.

Length 90 m; draft 4.2 m.

Type: Tanker. MMSI: 370679000.

Date/timePositionNaut miles runAvg speedWind from/ knotsBaromVisibWave heightAir tempDewpointWater temp
2016-Sep-24 19:30N 38°01' E 023°33'0 0.0
2016-Sep-24 18:33N 38°01' E 023°33'0 0.0
2016-Sep-24 17:33N 38°01' E 023°33'0 0.0
2016-Sep-24 16:33N 38°01' E 023°33'0 0.0
2016-Sep-24 14:30N 38°01' E 023°33'0 0.0
2016-Sep-24 12:33N 38°01' E 023°33'0 0.0
2016-Sep-24 10:30N 38°01' E 023°33'0 0.0
2016-Sep-24 09:33N 38°01' E 023°33'0 0.0
2016-Sep-24 03:33N 38°01' E 023°33'0 0.0
2016-Sep-24 02:30N 38°01' E 023°33'0 0.0
2016-Sep-24 01:33N 38°01' E 023°33'0 0.0
2016-Sep-24 00:33N 38°01' E 023°33'0 0.0
2016-Sep-23 19:33N 38°01' E 023°33'0 0.0
2016-Sep-23 17:33N 38°01' E 023°33'0 0.0
2016-Sep-23 16:33N 38°01' E 023°33'0 0.0
2016-Sep-23 15:30N 38°01' E 023°33'0 0.0
2016-Sep-23 13:30N 38°01' E 023°33'0 0.0
2016-Sep-23 09:30N 38°01' E 023°33'0 0.0
2016-Sep-23 06:27N 38°01' E 023°33'0 0.0
2016-Sep-23 04:27N 38°01' E 023°33'0 0.0
2016-Sep-23 03:30N 38°01' E 023°33'0 0.0
2016-Sep-23 02:30N 38°01' E 023°33'0 0.0
2016-Sep-23 01:30N 38°01' E 023°33'0 0.0
2016-Sep-23 00:18N 38°01' E 023°33'0 0.0
2016-Sep-22 23:33N 38°01' E 023°33'0 0.0
2016-Sep-22 20:33N 38°01' E 023°33'0 0.0
2016-Sep-22 12:33N 38°01' E 023°33'0 0.0
2016-Sep-22 04:33N 38°01' E 023°33'0 0.0
2016-Sep-22 03:33N 38°01' E 023°33'0 0.0
2016-Sep-22 00:33N 38°01' E 023°33'0 0.0
2016-Sep-21 23:33N 38°01' E 023°33'0 0.0
2016-Sep-21 22:33N 38°01' E 023°33'0 0.0
2016-Sep-21 19:33N 38°01' E 023°33'0 0.0
2016-Sep-21 16:33N 38°01' E 023°33'0 0.0
2016-Sep-21 09:33N 38°01' E 023°33'0 0.1
2016-Sep-21 08:33N 38°01' E 023°33'0 0.0
2016-Sep-21 05:30N 38°01' E 023°33'0 0.0
2016-Sep-21 03:31N 38°01' E 023°33'0 0.0
2016-Sep-21 02:28N 38°01' E 023°33'0 0.0
2016-Sep-20 17:32N 38°01' E 023°33'0 0.0
2016-Sep-20 14:33N 38°01' E 023°33'0 0.0
2016-Sep-20 13:33N 38°01' E 023°33'0 0.0
2016-Sep-20 10:33N 38°01' E 023°33'0 0.0
2016-Sep-20 08:27N 38°01' E 023°33'0 0.0
2016-Sep-20 07:33N 38°01' E 023°33'0 0.0
2016-Sep-20 06:34N 38°01' E 023°33'17 4.3
2016-Sep-20 02:33N 37°46' E 023°42'19 6.2
2016-Sep-19 23:33N 37°32' E 023°58'7 1.4
2016-Sep-19 18:33N 37°26' E 024°02'65 1.6
2016-Sep-18 01:10N 37°17' E 025°24'19 7.4
2016-Sep-17 22:33N 37°11' E 025°47'  
2016-Sep-15 12:34N 34°31' E 033°03'6 6.1
2016-Sep-15 11:34N 34°34' E 033°09'  
Track history (hours):
 
Tides and Currents Weather Stations Pressure Air Temp Water Temp Dewpoint Dewpoint Depression Visibility Wind Speed Wind Dir Waves Ship Positions

Nepheli

Last reported at 2016-Sep-24 19:30 UTC. Time now 2016-Sep-24 20:57 UTC.
Position N 38°01' E 023°33'.

Length 90 m; draft 4.2 m.

Type: Tanker. MMSI: 370679000.

Date/timePositionNaut miles runAvg speedWind from/ knotsBaromVisibWave heightAir tempDewpointWater temp
2016-Sep-24 19:30N 38°01' E 023°33'0 0.0
2016-Sep-24 18:33N 38°01' E 023°33'0 0.0
2016-Sep-24 17:33N 38°01' E 023°33'0 0.0
2016-Sep-24 16:33N 38°01' E 023°33'0 0.0
2016-Sep-24 14:30N 38°01' E 023°33'0 0.0
2016-Sep-24 12:33N 38°01' E 023°33'0 0.0
2016-Sep-24 10:30N 38°01' E 023°33'0 0.0
2016-Sep-24 09:33N 38°01' E 023°33'0 0.0
2016-Sep-24 03:33N 38°01' E 023°33'0 0.0
2016-Sep-24 02:30N 38°01' E 023°33'0 0.0
2016-Sep-24 01:33N 38°01' E 023°33'0 0.0
2016-Sep-24 00:33N 38°01' E 023°33'0 0.0
2016-Sep-23 19:33N 38°01' E 023°33'0 0.0
2016-Sep-23 17:33N 38°01' E 023°33'0 0.0
2016-Sep-23 16:33N 38°01' E 023°33'0 0.0
2016-Sep-23 15:30N 38°01' E 023°33'0 0.0
2016-Sep-23 13:30N 38°01' E 023°33'0 0.0
2016-Sep-23 09:30N 38°01' E 023°33'0 0.0
2016-Sep-23 06:27N 38°01' E 023°33'0 0.0
2016-Sep-23 04:27N 38°01' E 023°33'0 0.0
2016-Sep-23 03:30N 38°01' E 023°33'0 0.0
2016-Sep-23 02:30N 38°01' E 023°33'0 0.0
2016-Sep-23 01:30N 38°01' E 023°33'0 0.0
2016-Sep-23 00:18N 38°01' E 023°33'0 0.0
2016-Sep-22 23:33N 38°01' E 023°33'0 0.0
2016-Sep-22 20:33N 38°01' E 023°33'0 0.0
2016-Sep-22 12:33N 38°01' E 023°33'0 0.0
2016-Sep-22 04:33N 38°01' E 023°33'0 0.0
2016-Sep-22 03:33N 38°01' E 023°33'0 0.0
2016-Sep-22 00:33N 38°01' E 023°33'0 0.0
2016-Sep-21 23:33N 38°01' E 023°33'0 0.0
2016-Sep-21 22:33N 38°01' E 023°33'0 0.0
2016-Sep-21 19:33N 38°01' E 023°33'0 0.0
2016-Sep-21 16:33N 38°01' E 023°33'0 0.0
2016-Sep-21 09:33N 38°01' E 023°33'0 0.1
2016-Sep-21 08:33N 38°01' E 023°33'0 0.0
2016-Sep-21 05:30N 38°01' E 023°33'0 0.0
2016-Sep-21 03:31N 38°01' E 023°33'0 0.0
2016-Sep-21 02:28N 38°01' E 023°33'0 0.0
2016-Sep-20 17:32N 38°01' E 023°33'0 0.0
2016-Sep-20 14:33N 38°01' E 023°33'0 0.0
2016-Sep-20 13:33N 38°01' E 023°33'0 0.0
2016-Sep-20 10:33N 38°01' E 023°33'0 0.0
2016-Sep-20 08:27N 38°01' E 023°33'0 0.0
2016-Sep-20 07:33N 38°01' E 023°33'0 0.0
2016-Sep-20 06:34N 38°01' E 023°33'17 4.3
2016-Sep-20 02:33N 37°46' E 023°42'19 6.2
2016-Sep-19 23:33N 37°32' E 023°58'7 1.4
2016-Sep-19 18:33N 37°26' E 024°02'65 1.6
2016-Sep-18 01:10N 37°17' E 025°24'19 7.4
2016-Sep-17 22:33N 37°11' E 025°47'  
2016-Sep-15 12:34N 34°31' E 033°03'6 6.1
2016-Sep-15 11:34N 34°34' E 033°09'  

Dump ship's entire track history